Time;durP1;ratioP1;P1;durP2;ratioP2;P2;SDS_P1;SDS_P2;PMS_P1;PMS_P2;Temp;Humidity;BMP_temperature;BMP_pressure;BME280_temperature;BME280_humidity;BME280_pressure;Samples;Min_cycle;Max_cycle;Signal;HPM_P1;HPM_P2
2021/04/26 00:00:35;;;;;;;40.50;18.30;;;24.00;52.80;;;;;;5072819;28;20471;-63
2021/04/26 00:03:01;;;;;;;26.13;15.82;;;24.00;52.70;;;;;;5073378;28;20382;-63
2021/04/26 00:05:27;;;;;;;31.35;16.75;;;24.00;52.80;;;;;;5073345;28;20484;-63
2021/04/26 00:07:55;;;;;;;33.97;16.23;;;24.00;52.70;;;;;;5051386;28;20052;-63
2021/04/26 00:10:21;;;;;;;38.65;16.08;;;24.00;52.80;;;;;;5069316;28;20036;-63
2021/04/26 00:12:48;;;;;;;29.65;14.73;;;24.00;52.80;;;;;;5072595;28;20037;-64
2021/04/26 00:15:32;;;;;;;31.65;15.20;;;24.00;52.80;;;;;;5073389;28;20028;-63
2021/04/26 00:17:58;;;;;;;33.42;14.35;;;23.90;52.80;;;;;;5073225;28;20116;-63
2021/04/26 00:20:28;;;;;;;32.42;12.80;;;24.00;52.80;;;;;;5070489;28;20093;-63
2021/04/26 00:23:02;;;;;;;27.75;12.38;;;24.00;52.80;;;;;;5072341;28;20040;-63
2021/04/26 00:25:29;;;;;;;28.58;10.18;;;24.00;52.80;;;;;;5072556;28;20039;-63
2021/04/26 00:27:56;;;;;;;31.88;12.50;;;24.00;52.70;;;;;;5071936;28;20053;-63
2021/04/26 00:30:24;;;;;;;26.42;11.95;;;23.90;52.70;;;;;;5055262;28;20044;-63
2021/04/26 00:32:51;;;;;;;30.27;11.48;;;23.90;52.80;;;;;;5072558;28;20025;-64
2021/04/26 00:35:17;;;;;;;29.75;11.55;;;23.90;52.80;;;;;;5071951;28;20056;-63
2021/04/26 00:37:44;;;;;;;26.05;10.98;;;23.90;52.90;;;;;;5053665;28;20086;-63
2021/04/26 00:40:11;;;;;;;34.80;9.98;;;23.90;53.00;;;;;;5070287;28;20447;-63
2021/04/26 00:42:38;;;;;;;28.42;10.95;;;23.90;53.30;;;;;;5072690;28;20039;-64
2021/04/26 00:45:09;;;;;;;22.17;9.15;;;23.90;52.80;;;;;;5054767;28;20033;-63
2021/04/26 00:47:36;;;;;;;25.42;11.18;;;23.80;52.90;;;;;;5072959;28;20932;-64
2021/04/26 00:50:05;;;;;;;26.65;9.60;;;23.80;52.80;;;;;;5075087;28;20037;-63
2021/04/26 00:52:31;;;;;;;26.00;10.15;;;23.80;52.90;;;;;;5079380;28;20497;-63
2021/04/26 00:54:58;;;;;;;33.40;11.00;;;23.80;53.00;;;;;;5078747;28;20044;-63
2021/04/26 00:57:24;;;;;;;26.92;10.30;;;23.80;53.00;;;;;;5079656;28;20067;-64
2021/04/26 00:59:51;;;;;;;25.65;9.52;;;23.80;53.70;;;;;;5078928;28;20043;-63
2021/04/26 01:02:18;;;;;;;25.10;9.40;;;23.80;53.10;;;;;;5078469;28;20039;-63
2021/04/26 01:04:45;;;;;;;27.02;10.05;;;23.80;53.20;;;;;;5060563;28;20036;-63
2021/04/26 01:07:11;;;;;;;29.45;10.43;;;23.80;53.20;;;;;;5077751;28;20056;-63
2021/04/26 01:09:39;;;;;;;23.20;9.50;;;23.80;53.20;;;;;;5059243;28;20411;-64
2021/04/26 01:12:12;;;;;;;30.40;9.95;;;23.80;53.20;;;;;;5059183;28;20193;-64
2021/04/26 01:14:46;;;;;;;27.77;9.90;;;23.80;53.30;;;;;;5078820;28;20063;-64
2021/04/26 01:17:21;;;;;;;23.23;8.77;;;23.80;53.30;;;;;;5061408;28;20493;-64
2021/04/26 01:19:56;;;;;;;26.73;9.13;;;23.80;53.20;;;;;;5061392;28;20070;-64
2021/04/26 01:22:47;;;;;;;25.58;8.30;;;23.80;53.30;;;;;;5060661;28;20419;-63
2021/04/26 01:25:17;;;;;;;;;;;23.80;53.20;;;;;;5078176;28;20036;-63
2021/04/26 01:28:17;;;;;;;26.02;9.43;;;23.80;53.20;;;;;;5077873;28;20251;-64
2021/04/26 01:30:52;;;;;;;;;;;23.90;53.10;;;;;;5079660;28;20041;-63
2021/04/26 01:33:30;;;;;;;23.70;9.05;;;23.90;53.00;;;;;;5040566;28;19915;-63
2021/04/26 01:36:03;;;;;;;23.77;7.72;;;23.90;52.90;;;;;;5037938;28;20044;-63
2021/04/26 01:38:43;;;;;;;21.02;9.50;;;23.90;53.10;;;;;;5060952;28;20505;-64
2021/04/26 01:41:11;;;;;;;23.15;8.90;;;23.90;53.20;;;;;;5078311;28;20040;-64
2021/04/26 01:43:40;;;;;;;20.92;8.57;;;23.80;53.20;;;;;;5063015;28;20041;-63
2021/04/26 01:46:10;;;;;;;21.40;7.63;;;23.80;53.20;;;;;;5024918;28;20049;-64
2021/04/26 01:48:42;;;;;;;24.13;7.43;;;23.80;53.30;;;;;;5058804;28;20406;-63
2021/04/26 01:51:10;;;;;;;22.50;7.82;;;23.70;53.30;;;;;;5060558;28;20413;-63
2021/04/26 01:53:42;;;;;;;24.88;7.22;;;23.80;53.30;;;;;;5060533;28;20048;-64
2021/04/26 01:56:12;;;;;;;20.48;7.75;;;23.80;53.40;;;;;;5078874;28;20046;-64
2021/04/26 01:58:51;;;;;;;18.73;7.50;;;23.80;53.40;;;;;;5078388;28;20060;-63
2021/04/26 02:01:22;;;;;;;20.45;7.85;;;23.80;53.40;;;;;;5076214;28;20075;-65
2021/04/26 02:03:59;;;;;;;26.92;8.25;;;23.80;53.40;;;;;;5057133;28;20090;-63
2021/04/26 02:06:49;;;;;;;20.50;8.43;;;23.80;53.40;;;;;;5056583;28;20041;-63
2021/04/26 02:09:34;;;;;;;24.15;7.68;;;23.80;53.40;;;;;;5059542;28;20718;-63
2021/04/26 02:12:12;;;;;;;18.80;8.18;;;23.80;53.40;;;;;;5057103;28;20516;-63
2021/04/26 02:14:42;;;;;;;19.10;7.65;;;23.80;53.40;;;;;;5057485;28;20039;-63
2021/04/26 02:17:09;;;;;;;21.30;7.45;;;23.80;53.40;;;;;;5057078;28;20041;-64
2021/04/26 02:19:37;;;;;;;18.88;7.72;;;23.80;53.40;;;;;;5057302;28;20044;-64
2021/04/26 02:22:04;;;;;;;21.23;8.25;;;23.80;53.40;;;;;;5056164;28;20079;-64
2021/04/26 02:24:34;;;;;;;29.23;7.75;;;23.80;53.50;;;;;;5057564;28;20052;-63
2021/04/26 02:27:00;;;;;;;18.08;7.65;;;23.70;53.40;;;;;;5073254;28;20044;-64
2021/04/26 02:29:27;;;;;;;18.98;6.72;;;23.70;53.40;;;;;;5056714;28;20033;-64
2021/04/26 02:31:59;;;;;;;19.45;6.65;;;23.70;53.40;;;;;;5074128;28;20051;-61
2021/04/26 02:34:34;;;;;;;20.40;7.13;;;23.70;53.40;;;;;;5039741;28;20421;-61
2021/04/26 02:37:32;;;;;;;17.48;7.43;;;23.70;53.50;;;;;;5072723;28;20046;-61
2021/04/26 02:40:08;;;;;;;17.48;6.70;;;23.70;53.50;;;;;;5055718;28;20041;-61
2021/04/26 02:42:40;;;;;;;17.48;7.05;;;23.70;53.40;;;;;;5055714;28;20178;-62
2021/04/26 02:45:09;;;;;;;17.77;6.22;;;23.70;53.40;;;;;;5067903;28;20033;-63
2021/04/26 02:47:38;;;;;;;20.20;7.57;;;23.70;53.40;;;;;;5033549;28;20179;-63
2021/04/26 02:50:22;;;;;;;21.58;7.20;;;23.70;53.40;;;;;;5039985;28;20033;-63
2021/04/26 02:53:05;;;;;;;24.40;6.88;;;23.70;53.50;;;;;;5050989;28;20115;-64
2021/04/26 02:55:33;;;;;;;26.67;7.25;;;23.70;53.40;;;;;;5054517;28;20493;-61
2021/04/26 02:57:59;;;;;;;27.48;7.95;;;23.70;53.40;;;;;;5052891;28;20096;-61
2021/04/26 03:00:26;;;;;;;22.00;7.22;;;23.70;53.40;;;;;;5035532;28;20037;-61
2021/04/26 03:03:11;;;;;;;22.58;7.25;;;23.70;53.40;;;;;;5053344;28;20036;-61
2021/04/26 03:05:38;;;;;;;18.80;7.25;;;23.60;53.40;;;;;;5052235;28;20082;-62
2021/04/26 03:08:06;;;;;;;24.90;7.30;;;23.60;53.40;;;;;;5053002;28;20032;-62
2021/04/26 03:10:32;;;;;;;20.52;5.90;;;23.60;53.40;;;;;;5051981;28;20107;-61
2021/04/26 03:12:59;;;;;;;23.90;6.70;;;23.60;53.40;;;;;;5050392;28;20041;-61
2021/04/26 03:15:28;;;;;;;17.35;7.38;;;23.60;53.40;;;;;;5051526;28;20388;-61
2021/04/26 03:17:54;;;;;;;19.63;6.60;;;23.60;53.40;;;;;;5052267;28;20048;-62
2021/04/26 03:20:21;;;;;;;21.30;7.15;;;23.60;53.40;;;;;;5034957;28;20486;-61
2021/04/26 03:23:02;;;;;;;22.42;6.97;;;23.60;53.40;;;;;;5035469;28;20033;-61
2021/04/26 03:25:30;;;;;;;20.20;6.90;;;23.60;53.40;;;;;;5044152;28;20040;-61
2021/04/26 03:27:57;;;;;;;20.98;7.40;;;23.60;53.40;;;;;;5034483;28;20040;-61
2021/04/26 03:30:28;;;;;;;;;;;23.60;53.40;;;;;;5034922;28;20086;-61
2021/04/26 03:33:15;;;;;;;19.58;6.43;;;23.60;53.50;;;;;;5034990;28;19908;-61
2021/04/26 03:35:43;;;;;;;22.17;6.65;;;23.60;53.20;;;;;;5052507;28;20049;-61
2021/04/26 03:38:11;;;;;;;19.67;6.47;;;23.60;53.20;;;;;;5051362;28;20029;-61
2021/04/26 03:40:38;;;;;;;19.52;7.05;;;23.60;53.30;;;;;;5051359;28;20123;-61
2021/04/26 03:43:05;;;;;;;17.92;6.35;;;23.50;53.30;;;;;;5052286;28;20029;-61
2021/04/26 03:45:57;;;;;;;30.90;9.45;;;23.50;53.30;;;;;;5034888;28;20082;-61
2021/04/26 03:48:42;;;;;;;19.77;6.75;;;23.50;53.30;;;;;;5053093;28;20040;-61
2021/04/26 03:51:22;;;;;;;19.25;6.93;;;23.50;53.30;;;;;;5051047;28;20056;-61
2021/04/26 03:54:08;;;;;;;17.80;7.15;;;23.50;53.30;;;;;;5051601;28;20043;-61
2021/04/26 03:56:40;;;;;;;23.13;7.15;;;23.50;53.30;;;;;;5018700;28;20117;-63
2021/04/26 03:59:08;;;;;;;22.92;6.63;;;23.50;53.90;;;;;;5019418;28;20037;-63
2021/04/26 04:01:36;;;;;;;20.77;6.50;;;23.50;53.30;;;;;;5035778;28;20055;-63
2021/04/26 04:04:06;;;;;;;20.50;7.05;;;23.40;53.30;;;;;;5053216;28;20041;-64
2021/04/26 04:06:55;;;;;;;23.58;7.65;;;23.40;53.30;;;;;;5023334;28;20044;-64
2021/04/26 04:09:36;;;;;;;30.70;8.60;;;23.40;53.30;;;;;;5053197;28;20037;-64
2021/04/26 04:12:21;;;;;;;17.88;7.47;;;23.40;53.20;;;;;;5035301;28;20033;-64
2021/04/26 04:14:59;;;;;;;22.00;8.00;;;23.40;53.30;;;;;;5020421;28;20065;-64
2021/04/26 04:17:26;;;;;;;20.55;7.13;;;23.40;53.30;;;;;;5053331;28;20037;-64
2021/04/26 04:19:53;;;;;;;22.38;7.22;;;23.40;53.40;;;;;;5035032;28;20514;-65
2021/04/26 04:22:20;;;;;;;26.60;7.35;;;23.40;53.40;;;;;;5035030;28;20037;-64
2021/04/26 04:24:53;;;;;;;30.92;8.10;;;23.40;53.40;;;;;;5052250;28;20041;-63
2021/04/26 04:27:20;;;;;;;29.98;8.98;;;23.40;53.20;;;;;;5051163;28;20033;-64
2021/04/26 04:29:46;;;;;;;21.88;7.47;;;23.30;53.30;;;;;;5051296;28;20037;-64
2021/04/26 04:32:31;;;;;;;23.67;8.35;;;23.30;53.30;;;;;;5037918;28;20343;-65
2021/04/26 04:35:26;;;;;;;20.15;7.65;;;23.30;53.20;;;;;;5013891;28;20057;-64
2021/04/26 04:38:11;;;;;;;23.25;7.97;;;23.30;53.10;;;;;;5072540;28;20062;-64
2021/04/26 04:40:56;;;;;;;29.10;6.97;;;23.30;53.10;;;;;;5070834;28;20039;-62
2021/04/26 04:43:27;;;;;;;23.92;7.90;;;23.20;53.10;;;;;;5053051;28;20048;-62
2021/04/26 04:45:56;;;;;;;27.88;7.70;;;23.20;53.20;;;;;;5071400;28;20047;-62
2021/04/26 04:48:34;;;;;;;21.05;8.00;;;23.20;53.20;;;;;;5055929;28;20072;-62
2021/04/26 04:51:04;;;;;;;29.13;8.98;;;23.20;53.20;;;;;;5036014;28;20409;-61
2021/04/26 04:53:30;;;;;;;23.50;8.13;;;23.20;53.30;;;;;;5053709;28;20048;-62
2021/04/26 04:55:56;;;;;;;23.95;7.38;;;23.20;53.30;;;;;;5053808;28;20128;-62
2021/04/26 04:58:32;;;;;;;22.48;7.78;;;23.20;53.30;;;;;;5037306;28;20037;-63
2021/04/26 05:00:58;;;;;;;22.73;7.85;;;23.20;53.30;;;;;;5036721;28;20090;-63
2021/04/26 05:03:43;;;;;;;19.30;7.60;;;23.20;53.30;;;;;;5051760;28;20039;-62
2021/04/26 05:06:27;;;;;;;26.58;7.47;;;23.20;53.30;;;;;;5056273;28;20044;-63
2021/04/26 05:09:29;;;;;;;23.20;7.88;;;23.20;53.40;;;;;;5007041;28;20038;-62
2021/04/26 05:12:15;;;;;;;25.48;7.25;;;23.20;53.30;;;;;;5064795;28;20444;-62
2021/04/26 05:15:02;;;;;;;24.60;7.05;;;23.20;53.20;;;;;;5066289;28;20180;-63
2021/04/26 05:17:29;;;;;;;23.95;8.10;;;23.20;53.30;;;;;;5050404;28;20506;-63
2021/04/26 05:19:57;;;;;;;23.92;7.28;;;23.20;53.30;;;;;;5064275;28;20040;-62
2021/04/26 05:22:23;;;;;;;30.25;8.07;;;23.20;53.30;;;;;;5068985;28;20036;-61
2021/04/26 05:24:58;;;;;;;24.42;7.40;;;23.20;53.20;;;;;;5051828;28;20690;-61
2021/04/26 05:27:25;;;;;;;28.60;7.63;;;23.20;53.30;;;;;;5063162;28;20059;-61
2021/04/26 05:29:51;;;;;;;20.98;7.47;;;23.10;53.30;;;;;;5049567;28;20086;-61
2021/04/26 05:32:19;;;;;;;27.25;6.75;;;23.10;53.30;;;;;;5036617;28;20032;-61
2021/04/26 05:34:47;;;;;;;26.85;8.07;;;23.10;53.30;;;;;;5049755;28;20132;-62
2021/04/26 05:37:14;;;;;;;21.88;6.75;;;23.10;53.30;;;;;;5036818;28;20123;-61
2021/04/26 05:39:40;;;;;;;24.33;7.28;;;23.10;53.30;;;;;;5055005;28;20565;-62
2021/04/26 05:42:07;;;;;;;24.92;7.50;;;23.10;53.30;;;;;;5066699;28;20038;-61
2021/04/26 05:44:34;;;;;;;26.50;7.75;;;23.20;53.30;;;;;;5016841;28;20084;-61
2021/04/26 05:47:20;;;;;;;24.75;6.63;;;23.10;53.20;;;;;;5023427;28;20441;-62
2021/04/26 05:49:46;;;;;;;21.77;7.10;;;23.10;53.20;;;;;;5053475;28;20179;-62
2021/04/26 05:52:12;;;;;;;25.88;8.00;;;23.10;53.20;;;;;;5054612;28;20498;-61
2021/04/26 05:54:38;;;;;;;22.98;6.68;;;23.10;53.20;;;;;;5046588;28;20061;-61
2021/04/26 05:57:05;;;;;;;21.77;7.07;;;23.10;53.20;;;;;;5016954;28;20406;-61
2021/04/26 05:59:31;;;;;;;24.73;6.32;;;23.10;52.90;;;;;;5034805;28;20043;-62
2021/04/26 06:01:56;;;;;;;24.58;7.40;;;23.10;53.00;;;;;;5034806;28;20037;-62
2021/04/26 06:04:22;;;;;;;21.38;6.90;;;23.10;53.10;;;;;;5022520;28;20045;-61
2021/04/26 06:06:48;;;;;;;21.70;7.22;;;23.20;53.20;;;;;;5065304;28;20363;-62
2021/04/26 06:09:15;;;;;;;26.92;6.13;;;23.10;53.10;;;;;;5052384;28;20044;-61
2021/04/26 06:11:41;;;;;;;16.30;6.18;;;23.10;53.10;;;;;;5053604;28;20086;-61
2021/04/26 06:14:07;;;;;;;26.40;7.32;;;23.10;53.20;;;;;;5035943;28;20040;-62
2021/04/26 06:16:33;;;;;;;30.10;8.77;;;23.10;53.00;;;;;;5054125;28;20113;-62
2021/04/26 06:18:59;;;;;;;30.30;13.90;;;23.10;52.90;;;;;;5053847;28;20037;-61
2021/04/26 06:21:25;;;;;;;50.30;29.35;;;23.10;52.80;;;;;;5053614;28;20037;-62
2021/04/26 06:23:51;;;;;;;44.92;25.95;;;23.10;52.80;;;;;;5051668;28;20045;-61
2021/04/26 06:26:18;;;;;;;51.90;33.90;;;23.10;52.90;;;;;;5053086;28;20475;-61
2021/04/26 06:28:44;;;;;;;63.95;50.30;;;23.10;52.90;;;;;;5051764;28;20041;-60
2021/04/26 06:31:10;;;;;;;70.10;47.75;;;23.10;53.10;;;;;;5053146;28;20039;-61
2021/04/26 06:33:36;;;;;;;61.85;42.70;;;23.10;53.10;;;;;;5053460;28;20036;-62
2021/04/26 06:36:02;;;;;;;64.88;45.38;;;23.10;53.10;;;;;;5054946;28;20225;-62
2021/04/26 06:38:28;;;;;;;47.05;28.70;;;23.10;53.00;;;;;;5072707;28;20047;-61
2021/04/26 06:40:54;;;;;;;53.47;33.88;;;23.10;52.80;;;;;;5072626;28;20048;-61
2021/04/26 06:43:20;;;;;;;43.92;21.95;;;23.10;52.80;;;;;;5055217;28;20041;-61
2021/04/26 06:45:46;;;;;;;55.45;31.77;;;23.20;52.90;;;;;;5072417;28;20049;-61
2021/04/26 06:48:17;;;;;;;52.13;34.05;;;23.20;52.80;;;;;;5053875;28;20039;-60
2021/04/26 06:50:44;;;;;;;50.78;19.30;;;23.10;52.90;;;;;;5076268;28;20064;-62
2021/04/26 06:53:11;;;;;;;52.53;23.60;;;23.10;52.90;;;;;;5080187;28;20046;-62
2021/04/26 06:55:37;;;;;;;51.42;23.50;;;23.10;53.00;;;;;;5062544;28;20036;-61
2021/04/26 06:58:04;;;;;;;46.13;25.63;;;23.10;53.20;;;;;;5062582;28;20033;-61
2021/04/26 07:00:30;;;;;;;53.47;24.83;;;23.10;53.20;;;;;;5061506;28;20443;-60
2021/04/26 07:02:56;;;;;;;39.83;18.08;;;23.10;53.30;;;;;;5078750;28;20045;-60
2021/04/26 07:05:24;;;;;;;42.38;21.85;;;23.10;53.30;;;;;;5061866;28;20029;-60
2021/04/26 07:07:50;;;;;;;40.53;19.88;;;23.10;54.10;;;;;;5080829;28;20052;-61
2021/04/26 07:10:16;;;;;;;42.00;18.20;;;23.10;53.40;;;;;;5076614;28;20047;-61
2021/04/26 07:12:42;;;;;;;38.83;14.90;;;23.10;53.50;;;;;;5056807;28;20021;-61
2021/04/26 07:15:11;;;;;;;32.65;14.07;;;23.20;53.60;;;;;;5071392;28;20032;-61
2021/04/26 07:17:37;;;;;;;33.70;14.63;;;23.20;53.60;;;;;;5069764;28;20044;-62
2021/04/26 07:20:05;;;;;;;33.33;12.55;;;23.20;53.50;;;;;;5053504;28;20526;-62
2021/04/26 07:22:31;;;;;;;31.80;10.18;;;23.30;53.60;;;;;;5075648;28;20047;-62
2021/04/26 07:24:57;;;;;;;33.47;9.77;;;23.30;53.50;;;;;;5078574;28;20063;-62
2021/04/26 07:27:23;;;;;;;31.55;12.63;;;23.40;53.50;;;;;;5075686;28;20535;-62
2021/04/26 07:29:50;;;;;;;37.65;11.90;;;23.40;53.50;;;;;;5071224;28;20477;-61
2021/04/26 07:32:16;;;;;;;31.67;11.20;;;23.40;53.60;;;;;;5052990;28;20047;-61
2021/04/26 07:34:42;;;;;;;46.70;10.75;;;23.40;53.60;;;;;;5070700;28;20040;-62
2021/04/26 07:37:08;;;;;;;25.45;9.18;;;23.40;53.70;;;;;;5070526;28;20056;-62
2021/04/26 07:39:34;;;;;;;37.92;10.00;;;23.40;53.70;;;;;;5036597;28;20036;-62
2021/04/26 07:42:01;;;;;;;30.88;9.23;;;23.40;53.80;;;;;;5070713;28;20075;-61
2021/04/26 07:44:27;;;;;;;29.48;8.35;;;23.40;53.70;;;;;;5071545;28;20144;-67
2021/04/26 07:46:56;;;;;;;39.22;9.40;;;23.50;53.70;;;;;;5036943;28;20098;-70
2021/04/26 07:49:22;;;;;;;36.25;9.25;;;23.50;53.60;;;;;;5053321;28;20032;-71
2021/04/26 07:51:48;;;;;;;35.83;10.00;;;23.50;53.60;;;;;;5071014;28;20115;-67
2021/04/26 07:54:14;;;;;;;32.15;9.57;;;23.50;53.60;;;;;;5053617;28;20076;-67
2021/04/26 07:56:41;;;;;;;34.08;9.77;;;23.50;53.40;;;;;;5069621;28;20037;-68
2021/04/26 07:59:07;;;;;;;39.50;8.93;;;23.60;53.20;;;;;;5051952;28;20048;-65
2021/04/26 08:01:33;;;;;;;33.60;8.82;;;23.60;53.00;;;;;;5070524;28;20398;-66
2021/04/26 08:03:59;;;;;;;28.98;9.02;;;23.70;52.90;;;;;;5057552;28;20491;-63
2021/04/26 08:06:25;;;;;;;37.92;12.98;;;23.70;52.60;;;;;;5017684;28;20044;-63
2021/04/26 08:08:51;;;;;;;62.63;37.80;;;23.70;52.70;;;;;;5052151;28;20030;-65
2021/04/26 08:11:17;;;;;;;58.60;32.30;;;23.70;52.50;;;;;;5052163;28;20041;-61
2021/04/26 08:13:43;;;;;;;50.25;28.52;;;23.70;52.40;;;;;;5034815;28;20054;-62
2021/04/26 08:16:09;;;;;;;52.78;27.00;;;23.70;52.40;;;;;;5051989;28;20054;-63
2021/04/26 08:18:35;;;;;;;48.45;23.35;;;23.80;52.40;;;;;;5051919;28;20123;-62
2021/04/26 08:21:02;;;;;;;35.80;18.75;;;23.80;52.30;;;;;;5051810;28;20115;-62
2021/04/26 08:23:28;;;;;;;34.25;12.80;;;23.80;52.90;;;;;;5051405;28;20091;-62
2021/04/26 08:25:54;;;;;;;28.95;12.80;;;23.90;52.20;;;;;;5033819;28;20474;-62
2021/04/26 08:28:21;;;;;;;23.58;11.02;;;23.90;52.20;;;;;;5033838;28;20067;-62
2021/04/26 08:30:49;;;;;;;27.33;13.80;;;23.90;52.10;;;;;;5051820;28;20029;-63
2021/04/26 08:33:15;;;;;;;27.40;10.40;;;23.90;52.00;;;;;;5033443;28;20037;-63
2021/04/26 08:35:42;;;;;;;30.27;11.90;;;23.90;52.00;;;;;;5016995;28;20044;-63
2021/04/26 08:38:09;;;;;;;30.88;10.63;;;24.00;52.00;;;;;;5033539;28;20051;-63
2021/04/26 08:40:36;;;;;;;26.80;11.23;;;24.00;52.00;;;;;;5051546;28;20087;-63
2021/04/26 08:43:07;;;;;;;26.65;10.25;;;24.00;52.00;;;;;;5033621;28;20061;-63
2021/04/26 08:45:33;;;;;;;26.48;9.45;;;24.10;51.90;;;;;;5051731;28;20036;-62
2021/04/26 08:48:01;;;;;;;23.63;8.15;;;24.10;52.00;;;;;;5050290;28;20051;-63
2021/04/26 08:50:28;;;;;;;23.35;8.10;;;24.20;51.90;;;;;;5051344;28;20041;-63
2021/04/26 08:52:54;;;;;;;26.65;7.97;;;24.20;51.80;;;;;;5051040;28;20037;-63
2021/04/26 08:55:21;;;;;;;25.55;7.13;;;24.30;51.80;;;;;;5050065;28;20032;-64
2021/04/26 08:57:49;;;;;;;32.60;10.98;;;24.20;51.70;;;;;;5033280;28;20041;-63
2021/04/26 09:00:18;;;;;;;24.15;8.98;;;24.30;51.70;;;;;;5051315;28;20471;-64
2021/04/26 09:02:53;;;;;;;28.00;9.30;;;24.30;51.60;;;;;;5051296;28;20072;-63
2021/04/26 09:05:29;;;;;;;26.02;7.57;;;24.30;51.50;;;;;;5051464;28;20083;-62
2021/04/26 09:07:59;;;;;;;24.92;7.22;;;24.30;51.60;;;;;;5016732;28;20064;-62
2021/04/26 09:10:44;;;;;;;22.92;6.95;;;24.40;51.60;;;;;;5052290;28;20095;-63
2021/04/26 09:13:42;;;;;;;22.75;6.68;;;24.40;51.70;;;;;;5037343;28;20510;-63
2021/04/26 09:16:19;;;;;;;25.55;6.38;;;24.40;51.50;;;;;;5055055;28;20052;-63
2021/04/26 09:18:47;;;;;;;24.75;7.25;;;24.50;51.40;;;;;;5053958;28;20475;-63
2021/04/26 09:21:19;;;;;;;22.33;6.18;;;24.50;51.40;;;;;;5055173;28;20098;-63
2021/04/26 09:24:06;;;;;;;15.73;5.60;;;24.50;50.90;;;;;;5037330;28;20447;-63
2021/04/26 09:26:32;;;;;;;25.77;7.15;;;24.60;50.80;;;;;;5054825;28;20043;-63
2021/04/26 09:29:19;;;;;;;18.77;8.20;;;24.70;50.90;;;;;;5020159;28;20033;-62
2021/04/26 09:32:07;;;;;;;21.88;7.13;;;24.70;50.80;;;;;;5020250;28;20111;-62
2021/04/26 09:34:36;;;;;;;19.60;7.03;;;24.70;50.30;;;;;;5054481;28;20513;-62
2021/04/26 09:37:28;;;;;;;21.92;7.07;;;24.80;50.40;;;;;;5054221;28;20140;-63
2021/04/26 09:40:12;;;;;;;16.63;5.30;;;24.80;50.10;;;;;;5046186;28;20041;-63
2021/04/26 09:42:45;;;;;;;20.85;5.88;;;24.80;49.20;;;;;;5035539;28;20040;-59
2021/04/26 09:45:33;;;;;;;23.75;5.70;;;24.90;50.00;;;;;;5051625;28;20532;-59
2021/04/26 09:48:14;;;;;;;22.80;5.55;;;24.90;49.80;;;;;;5052909;28;20366;-59
2021/04/26 09:50:49;;;;;;;;;;;24.90;49.70;;;;;;5053099;28;20029;-59
2021/04/26 09:53:15;;;;;;;13.63;4.20;;;25.00;50.40;;;;;;5052796;28;19913;-59
2021/04/26 09:55:41;;;;;;;19.15;4.30;;;25.10;49.00;;;;;;5034886;28;20029;-59
2021/04/26 09:58:08;;;;;;;22.35;5.25;;;25.10;48.90;;;;;;5052441;28;20107;-60
2021/04/26 10:00:35;;;;;;;24.27;6.28;;;25.10;48.90;;;;;;5035517;28;20040;-60
2021/04/26 10:03:00;;;;;;;18.77;5.15;;;25.10;49.00;;;;;;5053088;28;20062;-60
2021/04/26 10:05:27;;;;;;;16.40;4.97;;;25.10;49.20;;;;;;5052971;28;20055;-61
2021/04/26 10:07:53;;;;;;;20.23;5.00;;;25.10;49.20;;;;;;5052851;28;20053;-61
2021/04/26 10:10:19;;;;;;;15.07;4.10;;;25.20;49.20;;;;;;5019111;28;20029;-60
2021/04/26 10:12:45;;;;;;;16.33;3.58;;;25.20;48.40;;;;;;5052968;28;20179;-59
2021/04/26 10:15:14;;;;;;;15.52;2.95;;;25.20;47.80;;;;;;5052995;28;20060;-60
2021/04/26 10:17:42;;;;;;;12.48;3.05;;;25.20;46.70;;;;;;5053084;28;20124;-60
2021/04/26 10:20:09;;;;;;;8.80;2.33;;;25.20;46.60;;;;;;5035252;28;20471;-60
2021/04/26 10:22:38;;;;;;;10.13;2.92;;;25.20;46.60;;;;;;5050077;28;20045;-60
2021/04/26 10:25:08;;;;;;;10.00;3.17;;;25.30;46.80;;;;;;5051477;28;20033;-61
2021/04/26 10:27:37;;;;;;;11.25;3.13;;;25.30;46.80;;;;;;5033852;28;20033;-60
2021/04/26 10:30:07;;;;;;;9.60;3.00;;;25.30;46.70;;;;;;5051470;28;20041;-61
2021/04/26 10:32:56;;;;;;;14.23;3.17;;;25.40;46.70;;;;;;5050426;28;20040;-61
2021/04/26 10:35:24;;;;;;;22.80;3.75;;;25.40;46.90;;;;;;5026664;28;20122;-60
2021/04/26 10:37:50;;;;;;;8.27;2.67;;;25.50;46.60;;;;;;5052449;28;20041;-61
2021/04/26 10:40:19;;;;;;;13.77;3.22;;;25.60;46.30;;;;;;5051272;28;20102;-60
2021/04/26 10:42:48;;;;;;;9.75;3.60;;;25.60;46.00;;;;;;5052463;28;20041;-61
2021/04/26 10:45:19;;;;;;;18.60;3.92;;;25.60;45.80;;;;;;5034567;28;20064;-61
2021/04/26 10:48:06;;;;;;;16.48;4.38;;;25.70;46.00;;;;;;5034340;28;20033;-61
2021/04/26 10:50:46;;;;;;;10.23;3.22;;;25.70;46.00;;;;;;5050923;28;20564;-61
2021/04/26 10:53:12;;;;;;;13.90;3.75;;;25.80;45.40;;;;;;5052305;28;20061;-61
2021/04/26 10:55:44;;;;;;;12.50;3.40;;;25.80;45.50;;;;;;5034105;28;20032;-61
2021/04/26 10:58:23;;;;;;;13.32;3.70;;;25.90;45.40;;;;;;5034726;28;20395;-61
2021/04/26 11:00:49;;;;;;;11.00;3.88;;;25.90;45.30;;;;;;5017374;28;20045;-61
2021/04/26 11:03:18;;;;;;;12.30;3.92;;;25.90;45.60;;;;;;5052363;28;20041;-61
2021/04/26 11:05:53;;;;;;;14.65;4.72;;;26.00;45.40;;;;;;5033834;28;20072;-62
2021/04/26 11:08:40;;;;;;;14.68;3.53;;;26.00;45.20;;;;;;5033701;28;20112;-61
2021/04/26 11:13:41;;;;;;;10.13;2.58;;;26.10;45.20;;;;;;5034290;28;20075;-60
2021/04/26 11:16:17;;;;;;;11.93;3.10;;;26.10;45.50;;;;;;5051112;28;20478;-59
2021/04/26 11:18:58;;;;;;;7.97;3.00;;;26.10;45.10;;;;;;5034557;28;20041;-59
2021/04/26 11:21:42;;;;;;;6.82;2.13;;;26.10;44.80;;;;;;5052254;28;20044;-59
2021/04/26 11:24:09;;;;;;;7.90;2.40;;;26.10;45.30;;;;;;5034179;28;20068;-58
2021/04/26 11:26:35;;;;;;;6.10;1.85;;;26.10;45.40;;;;;;5052107;28;20115;-59
2021/04/26 11:29:02;;;;;;;5.80;1.83;;;26.10;45.70;;;;;;5052137;28;20037;-59
2021/04/26 11:31:43;;;;;;;7.30;1.73;;;26.10;45.50;;;;;;5051979;28;20041;-61
2021/04/26 11:34:19;;;;;;;4.38;1.60;;;26.10;45.60;;;;;;5036832;28;20040;-61
2021/04/26 11:37:19;;;;;;;9.10;2.13;;;26.10;45.60;;;;;;5071806;28;20561;-61
2021/04/26 11:39:46;;;;;;;5.38;1.85;;;26.10;45.90;;;;;;5029300;28;20055;-61
2021/04/26 11:42:22;;;;;;;10.18;2.22;;;26.20;45.70;;;;;;5053837;28;20427;-61
2021/04/26 11:44:48;;;;;;;11.60;2.00;;;26.10;45.60;;;;;;5053216;28;20438;-61
2021/04/26 11:47:16;;;;;;;6.13;1.98;;;26.20;45.80;;;;;;5069958;28;20037;-61
2021/04/26 11:49:45;;;;;;;14.60;2.47;;;26.20;45.70;;;;;;5052793;28;20040;-61
2021/04/26 11:52:16;;;;;;;9.00;2.22;;;26.10;45.60;;;;;;5053145;28;20036;-61
2021/04/26 11:54:49;;;;;;;6.53;1.70;;;26.10;45.70;;;;;;5071322;28;20041;-61
2021/04/26 11:57:19;;;;;;;3.55;1.15;;;26.10;45.30;;;;;;5071236;28;20044;-60
2021/04/26 11:59:48;;;;;;;2.90;1.10;;;26.10;44.90;;;;;;5071126;28;20485;-60
2021/04/26 12:02:26;;;;;;;5.10;1.02;;;26.10;44.30;;;;;;5071004;28;20040;-60
2021/04/26 12:04:53;;;;;;;4.30;1.67;;;26.10;44.20;;;;;;5069822;28;20040;-62
2021/04/26 12:07:19;;;;;;;2.17;1.20;;;26.10;44.40;;;;;;5053238;28;20033;-62
2021/04/26 12:09:56;;;;;;;2.92;1.27;;;26.10;44.50;;;;;;5069983;28;20036;-61
2021/04/26 12:12:27;;;;;;;5.55;1.20;;;26.10;44.50;;;;;;5053111;28;20028;-62
2021/04/26 12:14:56;;;;;;;5.65;1.60;;;26.10;44.30;;;;;;5069876;28;20056;-61
2021/04/26 12:17:31;;;;;;;3.40;1.08;;;26.00;44.40;;;;;;5053118;28;20131;-61
2021/04/26 12:19:58;;;;;;;4.97;1.02;;;26.00;44.60;;;;;;5069420;28;20033;-61
2021/04/26 12:22:25;;;;;;;4.63;1.52;;;26.00;44.70;;;;;;5069728;28;20036;-61
2021/04/26 12:24:54;;;;;;;4.43;1.35;;;26.00;44.80;;;;;;5071037;28;20036;-61
2021/04/26 12:27:26;;;;;;;4.00;1.65;;;26.00;45.30;;;;;;5070750;28;20029;-62
2021/04/26 12:29:53;;;;;;;7.65;1.40;;;26.00;44.50;;;;;;5052846;28;20036;-61
2021/04/26 12:32:20;;;;;;;5.68;1.55;;;26.00;44.70;;;;;;5068537;28;20160;-60
2021/04/26 12:35:02;;;;;;;4.55;1.50;;;25.90;44.70;;;;;;5048749;28;20056;-60
2021/04/26 12:37:29;;;;;;;9.25;2.20;;;25.90;44.80;;;;;;5064974;28;20045;-60
2021/04/26 12:40:28;;;;;;;6.97;2.63;;;25.90;44.90;;;;;;5048547;28;20037;-61
2021/04/26 12:42:57;;;;;;;5.35;2.60;;;25.90;45.00;;;;;;5049969;28;20032;-61
2021/04/26 12:45:28;;;;;;;9.07;3.05;;;25.90;45.00;;;;;;5047824;28;20462;-61
2021/04/26 12:48:10;;;;;;;7.35;2.83;;;25.90;45.00;;;;;;5048346;28;20041;-59
2021/04/26 12:50:38;;;;;;;6.03;2.50;;;25.80;45.00;;;;;;5048178;28;20068;-59
2021/04/26 12:53:11;;;;;;;4.55;2.30;;;25.90;45.20;;;;;;5047723;28;20033;-60
2021/04/26 12:56:17;;;;;;;2.97;1.33;;;25.80;45.00;;;;;;5065069;28;20331;-61
2021/04/26 12:59:01;;;;;;;3.50;1.48;;;25.80;45.00;;;;;;4974819;28;20038;-61
2021/04/26 13:01:28;;;;;;;4.25;1.85;;;25.80;44.60;;;;;;4990747;28;20062;-61